createdAt,value
2017-12-28T00:00:14.149Z,98457.27
2017-12-28T00:02:41.870Z,98454.45
2017-12-28T00:05:09.641Z,98454.68
2017-12-28T00:07:37.413Z,98448.15
2017-12-28T00:10:05.206Z,98452.27
2017-12-28T00:12:32.935Z,98450.52
2017-12-28T00:15:00.682Z,98448.33
2017-12-28T00:17:28.405Z,98451.25
2017-12-28T00:19:56.192Z,98451.07
2017-12-28T00:22:23.913Z,98452.59
2017-12-28T00:24:51.639Z,98453.16
2017-12-28T00:27:20.153Z,98450.97
2017-12-28T00:29:47.879Z,98442.59
2017-12-28T00:32:15.599Z,98445.81
2017-12-28T00:34:43.340Z,98451.22
2017-12-28T00:37:11.019Z,98454.05
2017-12-28T00:39:38.752Z,98457.72
2017-12-28T00:42:06.494Z,98451.67
2017-12-28T00:44:34.224Z,98454.97
2017-12-28T00:47:01.887Z,98452.05
2017-12-28T00:49:29.588Z,98449.38
2017-12-28T00:51:57.281Z,98450.26
2017-12-28T00:54:24.968Z,98451.63
2017-12-28T00:56:52.647Z,98450.44
2017-12-28T00:59:20.311Z,98450.00
2017-12-28T01:01:47.932Z,98462.82
2017-12-28T01:04:15.663Z,98466.22
2017-12-28T01:06:43.281Z,98458.51
2017-12-28T01:09:11.056Z,98461.35
2017-12-28T01:11:38.685Z,98450.12
2017-12-28T01:14:06.419Z,98451.97
2017-12-28T01:16:34.103Z,98462.94
2017-12-28T01:19:01.771Z,98467.34
2017-12-28T01:21:29.856Z,98462.11
2017-12-28T01:23:57.620Z,98455.62
2017-12-28T01:26:25.238Z,98455.62
2017-12-28T01:28:52.907Z,98457.95
2017-12-28T01:31:20.536Z,98456.90
2017-12-28T01:33:48.283Z,98456.84
2017-12-28T01:36:15.916Z,98453.89
2017-12-28T01:38:43.583Z,98457.03
2017-12-28T01:41:11.267Z,98458.73
2017-12-28T01:43:38.946Z,98454.23
2017-12-28T01:46:06.636Z,98459.55
2017-12-28T01:48:34.327Z,98454.20
2017-12-28T01:51:01.992Z,98454.83
2017-12-28T01:53:29.602Z,98463.93
2017-12-28T01:55:57.276Z,98470.29
2017-12-28T01:58:24.908Z,98471.05
2017-12-28T02:00:52.581Z,98473.45
2017-12-28T02:03:20.198Z,98474.48
2017-12-28T02:05:47.867Z,98476.32
2017-12-28T02:08:15.491Z,98485.48
2017-12-28T02:10:43.179Z,98485.20
2017-12-28T02:13:10.886Z,98480.36
2017-12-28T02:15:38.628Z,98481.80
2017-12-28T02:18:06.325Z,98489.49
2017-12-28T02:20:34.074Z,98491.53
2017-12-28T02:23:01.716Z,98498.81
2017-12-28T02:25:29.388Z,98489.55
2017-12-28T02:27:57.075Z,98492.02
2017-12-28T02:30:24.743Z,98492.96
2017-12-28T02:32:52.424Z,98492.20
2017-12-28T02:35:20.151Z,98485.74
2017-12-28T02:37:47.769Z,98486.30
2017-12-28T02:40:15.443Z,98488.28
2017-12-28T02:42:43.137Z,98491.98
2017-12-28T02:45:10.805Z,98492.16
2017-12-28T02:47:38.421Z,98497.25
2017-12-28T02:50:06.109Z,98490.95
2017-12-28T02:52:33.800Z,98491.94
2017-12-28T02:55:01.475Z,98495.73
2017-12-28T02:57:29.179Z,98498.81
2017-12-28T02:59:56.838Z,98500.97
2017-12-28T03:02:24.450Z,98505.91
2017-12-28T03:04:52.190Z,98503.55
2017-12-28T03:07:19.927Z,98491.13
2017-12-28T03:09:47.595Z,98499.73
2017-12-28T03:12:15.203Z,98497.57
2017-12-28T03:14:42.915Z,98498.83
2017-12-28T03:17:10.539Z,98508.27
2017-12-28T03:19:38.294Z,98500.80
2017-12-28T03:22:05.976Z,98505.81
2017-12-28T03:24:33.663Z,98505.79
2017-12-28T03:27:01.402Z,98515.58
2017-12-28T03:29:29.028Z,98517.39
2017-12-28T03:31:56.751Z,98517.61
2017-12-28T03:34:24.363Z,98518.75
2017-12-28T03:36:52.023Z,98535.55
2017-12-28T03:39:19.655Z,98534.38
2017-12-28T03:41:47.336Z,98533.47
2017-12-28T03:44:15.007Z,98533.58
2017-12-28T03:46:42.690Z,98536.47
2017-12-28T03:49:10.383Z,98536.69
2017-12-28T03:51:38.102Z,98543.13
2017-12-28T03:54:05.731Z,98553.00
2017-12-28T03:56:33.461Z,98547.23
2017-12-28T03:59:01.090Z,98551.02
2017-12-28T04:01:28.850Z,98550.98
2017-12-28T04:03:56.474Z,98552.32
2017-12-28T04:06:24.286Z,98548.36
2017-12-28T04:08:51.900Z,98548.54
2017-12-28T04:11:19.603Z,98554.78
2017-12-28T04:13:47.299Z,98553.91
2017-12-28T04:16:14.980Z,98553.91
2017-12-28T04:18:42.609Z,98559.08
2017-12-28T04:21:10.343Z,98562.17
2017-12-28T04:23:38.036Z,98563.66
2017-12-28T04:26:05.766Z,98563.27
2017-12-28T04:28:33.391Z,98568.43
2017-12-28T04:31:01.169Z,98571.34
2017-12-28T04:33:28.782Z,98562.53
2017-12-28T04:35:56.452Z,98571.45
2017-12-28T04:38:24.148Z,98566.84
2017-12-28T04:40:51.865Z,98567.84
2017-12-28T04:43:19.480Z,98570.71
2017-12-28T04:45:47.233Z,98564.38
2017-12-28T04:48:14.866Z,98565.97
2017-12-28T04:50:42.547Z,98565.14
2017-12-28T04:53:10.274Z,98563.05
2017-12-28T04:55:37.970Z,98566.14
2017-12-28T04:58:05.660Z,98569.05
2017-12-28T05:00:33.371Z,98571.21
2017-12-28T05:03:01.043Z,98573.19
2017-12-28T05:05:28.791Z,98572.16
2017-12-28T05:07:56.467Z,98566.27
2017-12-28T05:10:24.199Z,98566.74
2017-12-28T05:12:51.883Z,98568.00
2017-12-28T05:15:19.611Z,98576.64
2017-12-28T05:17:47.355Z,98575.45
2017-12-28T05:20:15.038Z,98574.37
2017-12-28T05:22:42.723Z,98575.63
2017-12-28T05:25:10.407Z,98585.52
2017-12-28T05:27:38.141Z,98590.33
2017-12-28T05:30:05.769Z,98588.53
2017-12-28T05:32:33.447Z,98593.09
2017-12-28T05:35:01.140Z,98595.40
2017-12-28T05:37:28.824Z,98596.72
2017-12-28T05:39:56.530Z,98607.08
2017-12-28T05:42:24.197Z,98611.31
2017-12-28T05:44:51.846Z,98602.26
2017-12-28T05:47:19.586Z,98612.20
2017-12-28T05:49:47.269Z,98627.16
2017-12-28T05:52:15.017Z,98620.52
2017-12-28T05:54:42.740Z,98633.48
2017-12-28T05:57:10.477Z,98643.66
2017-12-28T05:59:38.158Z,98645.70
2017-12-28T06:02:05.886Z,98654.02
2017-12-28T06:04:33.492Z,98666.39
2017-12-28T06:07:01.159Z,98668.36
2017-12-28T06:09:28.845Z,98678.87
2017-12-28T06:11:56.533Z,98676.27
2017-12-28T06:14:24.216Z,98686.23
2017-12-28T06:16:51.944Z,98684.22
2017-12-28T06:19:19.627Z,98687.16
2017-12-28T06:21:47.290Z,98693.69
2017-12-28T06:24:15.012Z,98696.85
2017-12-28T06:26:42.807Z,98701.61
2017-12-28T06:29:10.421Z,98704.28
2017-12-28T06:31:38.144Z,98705.44
2017-12-28T06:34:05.759Z,98700.12
2017-12-28T06:36:33.431Z,98710.30
2017-12-28T06:39:01.133Z,98711.61
2017-12-28T06:41:28.818Z,98715.32
2017-12-28T06:43:56.476Z,98716.62
2017-12-28T06:46:24.155Z,98719.86
2017-12-28T06:48:51.897Z,98719.63
2017-12-28T06:51:19.632Z,98721.97
2017-12-28T06:53:47.303Z,98726.84
2017-12-28T06:56:14.924Z,98729.77
2017-12-28T06:58:42.667Z,98730.51
2017-12-28T07:01:10.278Z,98734.23
2017-12-28T07:03:37.956Z,98749.84
2017-12-28T07:06:05.692Z,98739.31
2017-12-28T07:08:33.523Z,98748.61
2017-12-28T07:11:01.153Z,98746.45
2017-12-28T07:13:28.894Z,98764.08
2017-12-28T07:15:56.534Z,98770.32
2017-12-28T07:18:24.252Z,98777.45
2017-12-28T07:20:52.024Z,98787.57
2017-12-28T07:23:19.760Z,98778.02
2017-12-28T07:25:47.448Z,98785.64
2017-12-28T07:28:15.119Z,98785.30
2017-12-28T07:30:42.823Z,98784.56
2017-12-28T07:33:10.528Z,98787.46
2017-12-28T07:35:38.207Z,98788.80
2017-12-28T07:38:05.870Z,98788.16
2017-12-28T07:40:33.544Z,98790.88
2017-12-28T07:43:01.219Z,98798.97
2017-12-28T07:45:28.837Z,98793.20
2017-12-28T07:47:56.574Z,98797.95
2017-12-28T07:50:24.207Z,98797.55
2017-12-28T07:52:58.537Z,98802.83
2017-12-28T07:55:26.158Z,98798.10
2017-12-28T07:57:53.903Z,98795.77
2017-12-28T08:00:21.531Z,98801.67
2017-12-28T08:02:49.213Z,98800.14
2017-12-28T08:05:16.844Z,98805.31
2017-12-28T08:07:44.519Z,98815.20
2017-12-28T08:10:12.165Z,98810.52
2017-12-28T08:12:39.837Z,98813.75
2017-12-28T08:15:07.466Z,98806.25
2017-12-28T08:17:35.131Z,98805.77
2017-12-28T08:20:02.785Z,98810.45
2017-12-28T08:22:30.463Z,98821.59
2017-12-28T08:24:58.147Z,98822.97
2017-12-28T08:27:25.772Z,98826.63
2017-12-28T08:29:53.452Z,98828.73
2017-12-28T08:32:21.146Z,98835.20
2017-12-28T08:34:48.825Z,98837.54
2017-12-28T08:37:16.491Z,98842.01
2017-12-28T08:39:44.230Z,98848.47
2017-12-28T08:42:11.856Z,98852.94
2017-12-28T08:44:39.564Z,98856.81
2017-12-28T08:47:07.258Z,98864.84
2017-12-28T08:49:35.021Z,98866.56
2017-12-28T08:52:02.703Z,98874.26
2017-12-28T08:54:30.387Z,98873.45
2017-12-28T08:56:58.002Z,98883.53
2017-12-28T08:59:25.728Z,98882.72
2017-12-28T09:01:53.354Z,98894.06
2017-12-28T09:04:21.019Z,98902.33
2017-12-28T09:06:48.692Z,98915.20
2017-12-28T09:09:16.355Z,98921.04
2017-12-28T09:11:44.047Z,98924.20
2017-12-28T09:14:11.878Z,98926.55
2017-12-28T09:16:39.531Z,98941.95
2017-12-28T09:19:07.200Z,98952.55
2017-12-28T09:21:34.829Z,98966.39
2017-12-28T09:24:02.558Z,98972.41
2017-12-28T09:26:30.248Z,98978.48
2017-12-28T09:28:57.999Z,98980.13
2017-12-28T09:31:25.641Z,98984.18
2017-12-28T09:33:53.319Z,98982.41
2017-12-28T09:36:21.013Z,98988.55
2017-12-28T09:38:48.728Z,98993.75
2017-12-28T09:41:16.347Z,98993.75
2017-12-28T09:43:44.049Z,98996.17
2017-12-28T09:46:11.702Z,99003.62
2017-12-28T09:48:39.382Z,99006.85
2017-12-28T09:51:06.990Z,99007.67
2017-12-28T09:53:34.648Z,99005.74
2017-12-28T09:56:02.280Z,99007.12
2017-12-28T09:58:29.953Z,99004.38
2017-12-28T10:00:57.566Z,99002.77
2017-12-28T10:03:25.272Z,99000.16
2017-12-28T10:05:52.899Z,99000.66
2017-12-28T10:08:20.520Z,99009.25
2017-12-28T10:10:48.239Z,99003.61
2017-12-28T10:13:15.883Z,99008.81
2017-12-28T10:15:43.549Z,99010.61
2017-12-28T10:18:11.181Z,99016.45
2017-12-28T10:20:38.866Z,99011.84
2017-12-28T10:23:06.502Z,99009.87
2017-12-28T10:25:34.188Z,99018.17
2017-12-28T10:28:01.847Z,99020.45
2017-12-28T10:30:29.542Z,99021.75
2017-12-28T10:32:57.203Z,99025.00
2017-12-28T10:35:24.881Z,99027.34
2017-12-28T10:37:52.494Z,99030.21
2017-12-28T10:40:20.161Z,99038.63
2017-12-28T10:42:47.800Z,99032.55
2017-12-28T10:45:15.476Z,99046.19
2017-12-28T10:47:43.106Z,99047.27
2017-12-28T10:50:10.795Z,99053.19
2017-12-28T10:52:38.445Z,99055.80
2017-12-28T10:55:06.143Z,99062.13
2017-12-28T10:57:33.786Z,99052.73
2017-12-28T11:00:01.476Z,99065.22
2017-12-28T11:02:29.088Z,99064.50
2017-12-28T11:04:56.756Z,99070.58
2017-12-28T11:07:24.382Z,99082.77
2017-12-28T11:09:52.038Z,99081.23
2017-12-28T11:12:19.664Z,99077.50
2017-12-28T11:14:47.323Z,99071.55
2017-12-28T11:17:15.068Z,99076.43
2017-12-28T11:19:42.725Z,99078.30
2017-12-28T11:22:10.351Z,99083.32
2017-12-28T11:24:38.016Z,99087.72
2017-12-28T11:27:05.623Z,99083.91
2017-12-28T11:29:33.265Z,99088.86
2017-12-28T11:32:00.877Z,99088.38
2017-12-28T11:34:28.529Z,99084.06
2017-12-28T11:36:56.138Z,99091.30
2017-12-28T11:39:23.837Z,99091.92
2017-12-28T11:41:51.440Z,99084.88
2017-12-28T11:44:19.057Z,99087.56
2017-12-28T11:46:46.722Z,99080.17
2017-12-28T11:49:20.861Z,99081.07
2017-12-28T11:51:48.540Z,99088.60
2017-12-28T11:54:16.204Z,99084.09
2017-12-28T11:56:44.958Z,99097.70
2017-12-28T11:59:18.284Z,99088.45
2017-12-28T12:01:51.595Z,99095.19
2017-12-28T12:04:22.231Z,99095.11
2017-12-28T12:06:52.779Z,99100.89
2017-12-28T12:09:20.426Z,99100.14
2017-12-28T12:11:48.085Z,99102.41
2017-12-28T12:14:15.778Z,99104.05
2017-12-28T12:16:43.442Z,99105.69
2017-12-28T12:19:11.073Z,99105.98
2017-12-28T12:21:38.740Z,99102.74
2017-12-28T12:24:06.411Z,99111.20
2017-12-28T12:26:34.099Z,99116.30
2017-12-28T12:29:01.746Z,99114.99
2017-12-28T12:31:29.456Z,99115.66
2017-12-28T12:33:57.094Z,99120.36
2017-12-28T12:36:24.750Z,99122.30
2017-12-28T12:38:52.404Z,99105.12
2017-12-28T12:41:20.072Z,99112.98
2017-12-28T12:43:47.700Z,99121.08
2017-12-28T12:46:15.399Z,99113.88
2017-12-28T12:48:43.040Z,99113.31
2017-12-28T12:51:10.703Z,99115.34
2017-12-28T12:53:38.340Z,99123.86
2017-12-28T12:56:06.035Z,99127.59
2017-12-28T12:58:33.638Z,99125.70
2017-12-28T13:01:02.738Z,99130.59
2017-12-28T13:03:30.363Z,99132.20
2017-12-28T13:05:58.030Z,99130.16
2017-12-28T13:08:25.636Z,99139.25
2017-12-28T13:10:53.301Z,99137.31
2017-12-28T13:13:20.915Z,99126.05
2017-12-28T13:15:48.606Z,99138.88
2017-12-28T13:18:16.216Z,99131.00
2017-12-28T13:20:43.870Z,99151.28
2017-12-28T13:23:11.491Z,99155.32
2017-12-28T13:25:39.156Z,99154.17
2017-12-28T13:28:06.778Z,99158.30
2017-12-28T13:30:34.431Z,99172.58
2017-12-28T13:33:02.028Z,99184.80
2017-12-28T13:35:29.711Z,99183.89
2017-12-28T13:37:57.338Z,99191.98
2017-12-28T13:40:24.976Z,99195.28
2017-12-28T13:42:52.644Z,99195.92
2017-12-28T13:45:20.290Z,99203.98
2017-12-28T13:47:47.955Z,99205.41
2017-12-28T13:50:15.572Z,99211.19
2017-12-28T13:52:43.240Z,99219.47
2017-12-28T13:55:10.862Z,99214.52
2017-12-28T13:57:38.546Z,99213.14
2017-12-28T14:00:06.168Z,99214.77
2017-12-28T14:02:33.845Z,99224.56
2017-12-28T14:05:01.532Z,99224.94
2017-12-28T14:07:29.184Z,99222.94
2017-12-28T14:09:56.860Z,99236.21
2017-12-28T14:12:24.510Z,99230.34
2017-12-28T14:14:52.123Z,99244.08
2017-12-28T14:17:19.790Z,99246.41
2017-12-28T14:19:47.394Z,99245.21
2017-12-28T14:22:15.070Z,99250.86
2017-12-28T14:24:42.685Z,99256.56
2017-12-28T14:27:10.355Z,99271.23
2017-12-28T14:29:37.968Z,99270.14
2017-12-28T14:32:05.629Z,99265.70
2017-12-28T14:34:33.288Z,99286.18
2017-12-28T14:37:00.949Z,99279.35
2017-12-28T14:39:28.573Z,99287.13
2017-12-28T14:41:56.230Z,99289.27
2017-12-28T14:44:23.847Z,99292.14
2017-12-28T14:46:51.591Z,99296.42
2017-12-28T14:49:19.210Z,99298.42
2017-12-28T14:51:46.911Z,99298.09
2017-12-28T14:54:14.578Z,99310.02
2017-12-28T14:56:42.231Z,99322.16
2017-12-28T14:59:09.849Z,99322.08
2017-12-28T15:01:37.514Z,99331.48
2017-12-28T15:04:05.136Z,99343.13
2017-12-28T15:06:32.796Z,99341.27
2017-12-28T15:09:00.914Z,99343.90
2017-12-28T15:11:28.587Z,99357.86
2017-12-28T15:13:56.216Z,99365.16
2017-12-28T15:16:23.868Z,99364.02
2017-12-28T15:18:51.532Z,99353.54
2017-12-28T15:21:19.195Z,99350.61
2017-12-28T15:23:46.862Z,99351.75
2017-12-28T15:26:14.580Z,99357.99
2017-12-28T15:28:42.253Z,99369.61
2017-12-28T15:31:09.888Z,99371.89
2017-12-28T15:33:37.550Z,99381.70
2017-12-28T15:36:05.158Z,99369.73
2017-12-28T15:38:32.816Z,99374.45
2017-12-28T15:41:00.422Z,99376.19
2017-12-28T15:43:28.091Z,99378.94
2017-12-28T15:45:55.716Z,99376.53
2017-12-28T15:48:23.386Z,99385.09
2017-12-28T15:50:51.054Z,99381.64
2017-12-28T15:53:18.711Z,99380.38
2017-12-28T15:55:46.323Z,99383.75
2017-12-28T15:58:13.986Z,99387.12
2017-12-28T16:00:41.596Z,99387.97
2017-12-28T16:03:09.256Z,99381.14
2017-12-28T16:05:36.917Z,99390.47
2017-12-28T16:08:04.658Z,99402.04
2017-12-28T16:10:32.341Z,99398.08
2017-12-28T16:13:00.083Z,99403.59
2017-12-28T16:15:27.742Z,99404.30
2017-12-28T16:17:55.399Z,99407.88
2017-12-28T16:20:23.078Z,99403.59
2017-12-28T16:22:50.743Z,99408.11
2017-12-28T16:25:18.385Z,99409.11
2017-12-28T16:27:46.048Z,99413.53
2017-12-28T16:30:13.675Z,99412.06
2017-12-28T16:32:41.339Z,99415.05
2017-12-28T16:35:09.006Z,99407.88
2017-12-28T16:37:36.667Z,99417.88
2017-12-28T16:40:04.295Z,99421.53
2017-12-28T16:42:31.965Z,99414.38
2017-12-28T16:44:59.625Z,99423.06
2017-12-28T16:47:27.347Z,99432.56
2017-12-28T16:49:54.959Z,99428.42
2017-12-28T16:52:22.615Z,99428.98
2017-12-28T16:54:50.237Z,99433.84
2017-12-28T16:57:17.848Z,99438.53
2017-12-28T16:59:45.494Z,99440.14
2017-12-28T17:02:13.131Z,99448.53
2017-12-28T17:04:40.833Z,99447.48
2017-12-28T17:07:08.497Z,99448.16
2017-12-28T17:09:36.172Z,99445.48
2017-12-28T17:12:03.845Z,99452.50
2017-12-28T17:14:31.514Z,99455.48
2017-12-28T17:16:59.164Z,99458.74
2017-12-28T17:19:26.849Z,99453.59
2017-12-28T17:21:54.518Z,99459.92
2017-12-28T17:24:22.219Z,99464.96
2017-12-28T17:26:49.864Z,99460.01
2017-12-28T17:29:17.531Z,99456.14
2017-12-28T17:31:45.201Z,99466.84
2017-12-28T17:34:12.878Z,99469.09
2017-12-28T17:36:40.535Z,99468.83
2017-12-28T17:39:08.226Z,99468.19
2017-12-28T17:41:35.895Z,99476.60
2017-12-28T17:44:03.618Z,99476.83
2017-12-28T17:46:31.323Z,99477.39
2017-12-28T17:48:59.029Z,99486.95
2017-12-28T17:51:26.686Z,99478.27
2017-12-28T17:53:54.429Z,99484.98
2017-12-28T17:56:22.094Z,99490.08
2017-12-28T17:58:49.810Z,99493.66
2017-12-28T18:01:17.428Z,99498.76
2017-12-28T18:03:45.150Z,99502.34
2017-12-28T18:06:12.798Z,99498.34
2017-12-28T18:08:40.520Z,99498.36
2017-12-28T18:11:08.170Z,99492.94
2017-12-28T18:13:35.898Z,99498.13
2017-12-28T18:16:03.554Z,99501.97
2017-12-28T18:18:31.269Z,99503.44
2017-12-28T18:20:58.936Z,99506.63
2017-12-28T18:23:26.644Z,99505.58
2017-12-28T18:25:54.315Z,99507.63
2017-12-28T18:28:22.031Z,99517.42
2017-12-28T18:30:49.763Z,99524.98
2017-12-28T18:33:17.579Z,99529.59
2017-12-28T18:35:45.322Z,99528.91
2017-12-28T18:38:12.995Z,99534.64
2017-12-28T18:40:40.803Z,99534.78
2017-12-28T18:43:08.529Z,99531.20
2017-12-28T18:45:36.197Z,99541.41
2017-12-28T18:48:03.950Z,99549.23
2017-12-28T18:50:31.670Z,99547.77
2017-12-28T18:52:59.413Z,99554.21
2017-12-28T18:55:27.147Z,99560.13
2017-12-28T18:57:54.866Z,99552.52
2017-12-28T19:00:22.581Z,99555.38
2017-12-28T19:02:50.326Z,99563.69
2017-12-28T19:05:18.097Z,99577.05
2017-12-28T19:07:45.870Z,99570.89
2017-12-28T19:10:13.594Z,99573.48
2017-12-28T19:12:41.400Z,99573.89
2017-12-28T19:15:09.175Z,99571.45
2017-12-28T19:17:36.881Z,99575.32
2017-12-28T19:20:04.571Z,99574.16
2017-12-28T19:22:32.301Z,99570.69
2017-12-28T19:25:00.017Z,99582.43
2017-12-28T19:27:27.745Z,99574.91
2017-12-28T19:29:55.474Z,99567.66
2017-12-28T19:32:23.126Z,99573.68
2017-12-28T19:34:50.861Z,99575.01
2017-12-28T19:37:18.592Z,99581.25
2017-12-28T19:39:46.376Z,99582.45
2017-12-28T19:42:14.118Z,99597.36
2017-12-28T19:44:41.830Z,99599.23
2017-12-28T19:47:09.565Z,99599.33
2017-12-28T19:49:37.345Z,99600.70
2017-12-28T19:52:05.070Z,99595.07
2017-12-28T19:54:32.870Z,99608.59
2017-12-28T19:57:00.619Z,99609.97
2017-12-28T19:59:28.398Z,99608.02
2017-12-28T20:01:56.160Z,99604.83
2017-12-28T20:04:23.952Z,99606.20
2017-12-28T20:06:51.726Z,99610.72
2017-12-28T20:09:19.398Z,99610.21
2017-12-28T20:11:47.113Z,99600.89
2017-12-28T20:14:15.780Z,99604.83
2017-12-28T20:16:43.446Z,99595.70
2017-12-28T20:19:11.178Z,99607.00
2017-12-28T20:21:38.968Z,99607.73
2017-12-28T20:24:06.687Z,99604.16
2017-12-28T20:26:34.483Z,99601.91
2017-12-28T20:29:02.219Z,99612.78
2017-12-28T20:31:30.024Z,99619.25
2017-12-28T20:33:57.779Z,99614.16
2017-12-28T20:36:25.571Z,99619.48
2017-12-28T20:38:53.324Z,99608.29
2017-12-28T20:41:21.103Z,99616.45
2017-12-28T20:43:48.796Z,99620.17
2017-12-28T20:46:16.579Z,99613.61
2017-12-28T20:48:44.310Z,99620.18
2017-12-28T20:51:12.107Z,99621.37
2017-12-28T20:53:39.846Z,99624.31
2017-12-28T20:56:07.664Z,99619.76
2017-12-28T20:58:35.345Z,99626.03
2017-12-28T21:01:03.129Z,99632.00
2017-12-28T21:03:30.869Z,99643.81
2017-12-28T21:05:58.647Z,99642.88
2017-12-28T21:08:26.453Z,99651.41
2017-12-28T21:10:54.227Z,99650.69
2017-12-28T21:13:21.962Z,99645.00
2017-12-28T21:15:49.800Z,99645.51
2017-12-28T21:18:17.551Z,99661.06
2017-12-28T21:20:45.273Z,99658.31
2017-12-28T21:23:13.011Z,99659.60
2017-12-28T21:25:40.779Z,99649.27
2017-12-28T21:28:08.564Z,99658.45
2017-12-28T21:30:36.357Z,99675.08
2017-12-28T21:33:04.082Z,99678.55
2017-12-28T21:35:31.862Z,99674.98
2017-12-28T21:37:59.599Z,99676.82
2017-12-28T21:40:27.394Z,99680.95
2017-12-28T21:42:55.144Z,99686.32
2017-12-28T21:45:22.926Z,99689.41
2017-12-28T21:47:50.669Z,99697.67
2017-12-28T21:50:18.461Z,99696.56
2017-12-28T21:52:46.194Z,99700.97
2017-12-28T21:55:13.973Z,99704.18
2017-12-28T21:57:41.743Z,99708.59
2017-12-28T22:00:09.484Z,99710.84
2017-12-28T22:02:37.262Z,99719.94
2017-12-28T22:05:04.999Z,99726.55
2017-12-28T22:07:32.832Z,99728.66
2017-12-28T22:10:00.559Z,99736.05
2017-12-28T22:12:28.340Z,99727.83
2017-12-28T22:14:56.096Z,99738.95
2017-12-28T22:17:23.866Z,99748.77
2017-12-28T22:19:51.600Z,99751.89
2017-12-28T22:22:19.397Z,99749.41
2017-12-28T22:24:47.128Z,99751.06
2017-12-28T22:27:14.893Z,99754.00
2017-12-28T22:29:42.643Z,99747.94
2017-12-28T22:32:10.415Z,99752.62
2017-12-28T22:34:38.098Z,99754.72
2017-12-28T22:37:05.875Z,99752.42
2017-12-28T22:39:33.598Z,99757.62
2017-12-28T22:42:01.374Z,99760.23
2017-12-28T22:44:29.115Z,99754.78
2017-12-28T22:46:56.964Z,99762.33
2017-12-28T22:49:24.694Z,99756.12
2017-12-28T22:51:52.487Z,99750.70
2017-12-28T22:54:20.235Z,99768.33
2017-12-28T22:56:48.015Z,99766.95
2017-12-28T22:59:15.759Z,99763.52
2017-12-28T23:01:43.542Z,99764.89
2017-12-28T23:04:11.214Z,99765.17
2017-12-28T23:06:39.021Z,99756.27
2017-12-28T23:09:06.688Z,99761.91
2017-12-28T23:11:34.453Z,99766.47
2017-12-28T23:14:02.165Z,99766.33
2017-12-28T23:16:29.945Z,99771.56
2017-12-28T23:18:57.681Z,99770.22
2017-12-28T23:21:25.470Z,99766.00
2017-12-28T23:23:53.325Z,99781.02
2017-12-28T23:26:21.086Z,99789.42
2017-12-28T23:28:48.814Z,99792.44
2017-12-28T23:31:16.587Z,99796.06
2017-12-28T23:33:44.318Z,99793.96
2017-12-28T23:36:12.091Z,99793.17
2017-12-28T23:38:39.833Z,99803.47
2017-12-28T23:41:07.644Z,99807.25
2017-12-28T23:43:35.381Z,99811.92
2017-12-28T23:46:03.116Z,99814.33
2017-12-28T23:48:30.829Z,99815.33
2017-12-28T23:50:58.543Z,99820.84
2017-12-28T23:53:26.313Z,99825.59
2017-12-28T23:55:54.044Z,99821.08
2017-12-28T23:58:21.769Z,99830.72
